• Join FlightAware (Why Join?)
  • Login
  • US Flag 
05:09AM EDT


 

Airport Tracker/Info


-or-


 

Live Flight TrackerFlight Track Log ✈ FEX11 ✈ 26-Aug-2013 ✈ CYXE - CYKZ

Flight Track Log - Related Links

Times and Time Zones

All times are in EDT time to prevent confusion due to time zone crossing. See the FEX11 flight status page for this flight to view local times or setup timezone preferences in your user account.

Time Position Orientation Groundspeed Altitude Reporting Facility
EDT Latitude Longitude Course Direction KTS MPH feet Rate Location/Type
05:54AM 52.1667 -106.7500 270° West 160 184 1,900  Level Winnipeg Center
05:55AM 52.1667 -106.8333 270° West 210 242 4,600 2,520 Climbing Winnipeg Center
05:56AM 52.1000 -106.8167 171° South 270 311 7,000 2,340 Climbing Winnipeg Center
05:57AM 52.0667 -106.7000 115° Southeast 310 357 9,300 1,800 Climbing Winnipeg Center
05:58AM 52.0500 -106.5333 99° East 360 414 10,600 1,320 Climbing Winnipeg Center
05:59AM 52.0167 -106.3667 108° East 400 460 12,000 1,920 Climbing Winnipeg Center
06:00AM 52.0000 -106.2000 99° East 400 460 14,500 2,400 Climbing Winnipeg Center
06:01AM 51.9500 -106.0333 116° Southeast 390 449 16,900 1,980 Climbing Winnipeg Center
06:02AM 51.9333 -105.8667 99° East 400 460 18,500 1,560 Climbing Winnipeg Center
06:03AM 51.9000 -105.6833 106° East 410 472 20,100 1,620 Climbing Winnipeg Center
06:04AM 51.8667 -105.4833 105° East 420 483 21,800 1,680 Climbing Winnipeg Center
06:05AM 51.8167 -105.3167 116° Southeast 420 483 23,500 1,560 Climbing Winnipeg Center
06:06AM 51.8000 -105.1333 98° East 420 483 25,000 1,200 Climbing Winnipeg Center
06:07AM 51.7667 -104.9500 106° East 430 495 26,000 900 Climbing Winnipeg Center
06:08AM 51.7333 -104.7667 106° East 440 506 26,800 1,020 Climbing Winnipeg Center
06:09AM 51.7000 -104.5667 105° East 460 529 28,100 1,440 Climbing Winnipeg Center
06:10AM 51.6500 -104.3667 112° Southeast 460 529 29,700 1,500 Climbing Winnipeg Center
06:11AM 51.6167 -104.1667 105° East 440 506 31,100 1,200 Climbing Winnipeg Center
06:12AM 51.5833 -103.9833 106° East 440 506 32,200 840 Climbing Winnipeg Center
06:13AM 51.5333 -103.8000 114° Southeast 450 518 32,800 600 Climbing Winnipeg Center
06:14AM 51.5000 -103.5833 104° East 460 529 33,500 780 Climbing Winnipeg Center
06:15AM 51.4667 -103.3833 105° East 460 529 34,400 900 Climbing Winnipeg Center
06:16AM 51.4167 -103.2000 114° Southeast 460 529 35,400 600 Climbing Winnipeg Center
06:17AM 51.3833 -103.0000 105° East 470 541 35,700 420 Climbing Winnipeg Center
06:18AM 51.3333 -102.7833 110° East 470 541 36,300 600 Climbing Winnipeg Center
06:19AM 51.3000 -102.5833 105° East 470 541 36,900 300 Climbing Winnipeg Center
06:20AM 51.2667 -102.4000 106° East 480 552 37,000  Climbing Winnipeg Center
06:21AM 51.2167 -102.1833 110° East 490 564 37,000  Level Winnipeg Center
06:22AM 51.1667 -101.9833 112° Southeast 510 587 37,000  Level Winnipeg Center
06:23AM 51.1167 -101.7333 108° East 520 598 37,000  Level Winnipeg Center
06:24AM 51.0667 -101.5167 110° East 520 598 37,000  Level Winnipeg Center
06:25AM 51.0167 -101.3000 110° East 530 610 37,000  Level Winnipeg Center
06:26AM 50.9667 -101.0833 110° East 540 621 37,000  Level Winnipeg Center
06:27AM 50.9167 -100.8667 110° East 540 621 37,000  Level Winnipeg Center
06:28AM 50.8667 -100.6333 109° East 540 621 37,000  Level Winnipeg Center
06:29AM 50.8167 -100.4167 110° East 540 621 37,000  Level Winnipeg Center
06:30AM 50.7500 -100.1667 113° Southeast 550 633 37,000  Level Winnipeg Center
06:31AM 50.7167 -99.9500 104° East 550 633 37,000  Level Winnipeg Center
06:32AM 50.6500 -99.7167 114° Southeast 550 633 37,000  Level Winnipeg Center
06:33AM 50.6000 -99.5000 110° East 560 644 37,000 360 Level Winnipeg Center
06:34AM 50.5500 -99.2833 110° East 550 633 37,800 600 Climbing Winnipeg Center
06:35AM 50.4833 -99.0500 114° Southeast 540 621 38,200 300 Climbing Winnipeg Center
06:36AM 50.4333 -98.8333 110° East 540 621 38,500 360 Climbing Winnipeg Center
06:37AM 50.3833 -98.6167 110° East 540 621 39,000 240 Climbing Winnipeg Center
06:38AM 50.3333 -98.3833 108° East 530 610 39,000  Level Winnipeg Center
06:39AM 50.3000 -98.1667 103° East 530 610 39,000  Level Winnipeg Center
06:40AM 50.2667 -97.9333 103° East 530 610 39,000  Level Winnipeg Center
06:41AM 50.2333 -97.7167 103° East 530 610 39,000  Level Winnipeg Center
06:42AM 50.1833 -97.4833 108° East 530 610 39,000  Level Winnipeg Center
06:43AM 50.1500 -97.2833 105° East 530 610 39,000  Level Winnipeg Center
06:44AM 50.1000 -97.0667 110° East 530 610 39,000  Level Winnipeg Center
06:45AM 50.0500 -96.8333 108° East 530 610 39,000  Level Winnipeg Center
06:46AM 50.0167 -96.6000 102° East 530 610 39,000  Level Winnipeg Center
06:47AM 49.9667 -96.4000 111° Southeast 530 610 39,000  Level Winnipeg Center
06:48AM 49.9333 -96.1667 102° East 530 610 39,000  Level Winnipeg Center
06:49AM 49.8667 -95.9500 115° Southeast 530 610 39,000  Level Winnipeg Center
06:50AM 49.8167 -95.7167 108° East 530 610 39,000  Level Winnipeg Center
06:51AM 49.7833 -95.5167 104° East 530 610 39,000  Level Winnipeg Center
06:52AM 49.7333 -95.3167 111° Southeast 530 610 39,000  Level Winnipeg Center
06:53AM 49.7000 -95.0833 102° East 530 610 39,000  Level Winnipeg Center
06:54AM 49.6500 -94.8667 110° East 530 610 39,000  Level Winnipeg Center
06:55AM 49.5833 -94.6500 115° Southeast 530 610 39,000  Level Winnipeg Center
06:56AM 49.5500 -94.4333 103° East 530 610 39,000  Level Winnipeg Center
06:57AM 49.5167 -94.2333 104° East 520 598 39,000  Level Winnipeg Center
06:58AM 49.4500 -94.0000 114° Southeast 520 598 39,000  Level Winnipeg Center
06:59AM 49.4000 -93.8000 111° Southeast 520 598 39,000  Level Winnipeg Center
07:00AM 49.3500 -93.5833 109° East 520 598 39,000  Level Winnipeg Center
07:01AM 49.3000 -93.3667 109° East 530 610 39,000  Level Winnipeg Center
07:02AM 49.2500 -93.1667 111° Southeast 520 598 39,000  Level Winnipeg Center
07:03AM 49.1833 -92.9667 117° Southeast 530 610 39,000  Level Winnipeg Center
07:04AM 49.1500 -92.7500 103° East 530 610 39,000  Level Winnipeg Center
07:05AM 49.0833 -92.5500 117° Southeast 530 610 39,000  Level Winnipeg Center
07:06AM 49.0333 -92.3167 108° East 530 610 39,000  Level Winnipeg Center
07:07AM 48.9833 -92.1167 111° Southeast 530 610 39,000  Level Winnipeg Center
07:08AM 48.9333 -91.9000 109° East 530 610 39,000  Level Winnipeg Center
07:09AM 48.8667 -91.7000 117° Southeast 530 610 39,000  Level Winnipeg Center
07:10AM 48.8333 -91.5000 104° East 520 598 39,000  Level Winnipeg Center
07:11AM 48.7667 -91.3000 117° Southeast 520 598 39,100 360 Climbing Winnipeg Center
07:12AM 48.7000 -91.0833 115° Southeast 510 587 39,800 480 Climbing Winnipeg Center
07:13AM 48.6667 -90.9167 107° East 500 575 40,100 300 Climbing Winnipeg Center
07:14AM 48.6000 -90.7167 117° Southeast 500 575 40,400 240 Climbing Winnipeg Center
07:15AM 48.5500 -90.5167 111° Southeast 490 564 40,600 300 Climbing Winnipeg Center
07:16AM 48.5000 -90.3500 114° Southeast 490 564 41,000 180 Climbing Winnipeg Center
07:17AM 48.4500 -90.1500 111° Southeast 480 552 41,000  Level Winnipeg Center
07:18AM 48.3833 -89.9667 119° Southeast 480 552 41,000  Level Winnipeg Center
07:19AM 48.3333 -89.7667 111° Southeast 480 552 41,000  Level Winnipeg Center
07:20AM 48.2833 -89.6000 114° Southeast 490 564 41,000  Level Winnipeg Center
07:21AM 48.2333 -89.4000 111° Southeast 490 564 41,000  Level Winnipeg Center
07:22AM 48.1667 -89.2167 119° Southeast 490 564 41,000  Level Winnipeg Center
07:23AM 48.1000 -89.0167 116° Southeast 490 564 41,100  Climbing Winnipeg Center
07:24AM 48.0667 -88.8500 107° East 490 564 41,000 -60 Descending Winnipeg Center
07:25AM 48.0000 -88.6667 118° Southeast 490 564 41,000  Level Winnipeg Center
07:26AM 47.9333 -88.5000 121° Southeast 500 575 41,000  Level Winnipeg Center
07:27AM 47.8667 -88.2833 115° Southeast 500 575 41,100  Climbing Winnipeg Center
07:28AM 47.8000 -88.1167 121° Southeast 500 575 41,000 -60 Descending Winnipeg Center
07:29AM 47.7333 -87.9333 118° Southeast 500 575 41,000  Level Winnipeg Center
07:30AM 47.6667 -87.7500 118° Southeast 510 587 41,000  Level Winnipeg Center
07:31AM 47.6167 -87.5500 110° East 510 587 41,000  Level Winnipeg Center
07:32AM 47.5333 -87.3667 124° Southeast 510 587 41,000  Level Winnipeg Center
07:33AM 47.4833 -87.1833 112° Southeast 510 587 41,000  Level Winnipeg Center
07:34AM 47.4167 -86.9833 116° Southeast 520 598 41,000  Level Winnipeg Center
07:35AM 47.3500 -86.8167 121° Southeast 520 598 41,100  Climbing Winnipeg Center
07:36AM 47.2667 -86.6167 121° Southeast 520 598 41,000 -60 Descending Winnipeg Center
07:37AM 47.2167 -86.4167 110° East 520 598 41,000  Level Winnipeg Center
07:38AM 47.1500 -86.2333 118° Southeast 530 610 41,000  Level Winnipeg Center
07:39AM 47.0833 -86.0500 118° Southeast 520 598 41,000  Level Winnipeg Center
07:40AM 47.0000 -85.8667 124° Southeast 530 610 41,000  Level Winnipeg Center
07:41AM 46.9333 -85.6667 116° Southeast 530 610 41,000  Level Winnipeg Center
07:42AM 46.8667 -85.4833 118° Southeast 530 610 41,000  Level Winnipeg Center
07:43AM 46.7833 -85.3167 126° Southeast 530 610 41,000  Level Winnipeg Center
07:44AM 46.7333 -85.1333 112° Southeast 520 598 41,000 -60 Level Winnipeg Center
07:45AM 46.6500 -84.9500 123° Southeast 490 564 40,900  Descending Winnipeg Center
07:46AM 46.5833 -84.7667 118° Southeast 480 552 41,000  Climbing Winnipeg Center
07:47AM 46.5167 -84.6167 123° Southeast 480 552 41,000  Level Winnipeg Center
07:48AM 46.4500 -84.4333 118° Southeast 500 575 41,000  Level Winnipeg Center
07:49AM 46.3667 -84.2500 123° Southeast 480 552 41,000  Level Toronto Center
07:50AM 46.2833 -84.1000 129° Southeast 470 541 41,000 -60 Level Toronto Center
07:51AM 46.2167 -83.9500 123° Southeast 470 541 40,900  Descending Toronto Center
07:52AM 46.1500 -83.7667 118° Southeast 470 541 41,000  Climbing Toronto Center
07:53AM 46.0667 -83.6167 129° Southeast 470 541 41,000  Level Toronto Center
07:54AM 45.9833 -83.4667 129° Southeast 480 552 41,000  Level Toronto Center
07:55AM 45.9000 -83.3167 129° Southeast 480 552 41,000  Level Toronto Center
07:56AM 45.8333 -83.1500 120° Southeast 480 552 41,000  Level Toronto Center
07:57AM 45.7500 -83.0000 128° Southeast 480 552 41,000  Level Toronto Center
07:58AM 45.6667 -82.8500 128° Southeast 480 552 41,000  Level Toronto Center
07:59AM 45.5833 -82.7000 128° Southeast 470 541 41,000  Level Toronto Center
08:00AM 45.5167 -82.5667 125° Southeast 460 529 41,000  Level Toronto Center
08:01AM 45.4333 -82.4167 128° Southeast 450 518 41,000  Level Toronto Center
08:02AM 45.3667 -82.2833 125° Southeast 440 506 41,000  Level Toronto Center
08:03AM 45.3000 -82.1500 125° Southeast 440 506 41,000  Level Toronto Center
08:04AM 45.2167 -82.0000 128° Southeast 440 506 41,000  Level Toronto Center
08:05AM 45.1500 -81.8500 122° Southeast 440 506 41,000  Level Toronto Center
08:06AM 45.0833 -81.7333 129° Southeast 450 518 41,000  Level Toronto Center
08:07AM 45.0000 -81.5833 128° Southeast 450 518 41,000  Level Toronto Center
08:08AM 44.9167 -81.4167 125° Southeast 460 529 41,000 -60 Level Toronto Center
08:09AM 44.8500 -81.3000 129° Southeast 460 529 40,900 -420 Descending Toronto Center
08:10AM 44.7500 -81.1333 130° Southeast 470 541 40,200 -1,680 Descending Toronto Center
08:11AM 44.6667 -81.0000 131° Southeast 490 564 37,600 -3,300 Descending Toronto Center
08:12AM 44.5833 -80.8500 128° Southeast 500 575 33,700 -4,380 Descending Toronto Center
08:13AM 44.5000 -80.7000 128° Southeast 510 587 28,900 -4,500 Descending Toronto Center
08:14AM 44.4167 -80.5667 131° Southeast 450 518 24,700 -4,140 Descending Toronto Center
08:15AM 44.3500 -80.4500 129° Southeast 390 449 20,700 -3,600 Descending Toronto Center
08:16AM 44.2833 -80.3500 133° Southeast 370 426 17,600 -3,360 Descending Toronto Center
08:17AM 44.2000 -80.2333 135° Southeast 390 449 14,000 -3,300 Descending Toronto Center
08:18AM 44.1333 -80.1500 138° Southeast 370 426 11,000 -3,180 Descending Toronto Center
08:19AM 44.1000 -80.0333 112° Southeast 350 403 7,700 -3,180 Descending Toronto Center
08:20AM 44.0500 -79.9167 121° Southeast 320 368 4,700 -2,400 Descending Toronto Center
08:21AM 44.0333 -79.8000 101° East 300 345 3,000 -900 Descending Toronto Center
08:22AM 44.0333 -79.6833 90° East 280 322 3,000  Level Toronto Center
08:23AM 44.0167 -79.5833 103° East 250 288 3,000 -180 Level Toronto Center
08:24AM 44.0000 -79.5167 109° East 220 253 2,700 -420 Descending Toronto Center
08:25AM 43.9667 -79.4667 133° Southeast 200 230 2,200 -480 Descending Toronto Center
08:27AM 43.8833 -79.3833 144° Southeast 170 196 1,300 -480 Descending Toronto Center
08:28AM 43.8500 -79.3500 144° Southeast 140 161 800 -540 Descending Toronto Center